Time;durP1;ratioP1;P1;durP2;ratioP2;P2;SDS_P1;SDS_P2;PMS_P1;PMS_P2;Temp;Humidity;BMP_temperature;BMP_pressure;BME280_temperature;BME280_humidity;BME280_pressure;Samples;Min_cycle;Max_cycle;Signal;HPM_P1;HPM_P2
2021/06/27 00:02:07;;;;;;;9.98;7.10;;;;;;;;;;5093570;28;20032;-79
2021/06/27 00:04:33;;;;;;;12.65;6.80;;;;;;;;;;5111720;28;20043;-77
2021/06/27 00:06:59;;;;;;;10.95;6.80;;;;;;;;;;5113882;28;20498;-78
2021/06/27 00:09:27;;;;;;;15.38;6.97;;;;;;;;;;5112701;28;20019;-77
2021/06/27 00:11:53;;;;;;;9.07;6.45;;;;;;;;;;5112950;28;20020;-78
2021/06/27 00:14:19;;;;;;;8.45;6.68;;;;;;;;;;5114025;28;20027;-79
2021/06/27 00:16:45;;;;;;;10.70;6.63;;;;;;;;;;5106362;28;20031;-79
2021/06/27 00:19:11;;;;;;;11.80;7.72;;;;;;;;;;5086672;28;20027;-78
2021/06/27 00:21:38;;;;;;;12.50;7.40;;;;;;;;;;5113288;28;20110;-79
2021/06/27 00:24:04;;;;;;;14.60;7.38;;;;;;;;;;5113960;28;20034;-79
2021/06/27 00:26:30;;;;;;;11.50;6.97;;;;;;;;;;5111787;28;20039;-79
2021/06/27 00:28:57;;;;;;;12.82;7.60;;;;;;;;;;5113713;28;20039;-80
2021/06/27 00:31:23;;;;;;;13.35;7.43;;;;;;;;;;5097474;28;20024;-78
2021/06/27 00:33:50;;;;;;;10.70;7.68;;;;;;;;;;5092332;28;20480;-78
2021/06/27 00:36:16;;;;;;;11.15;8.07;;;;;;;;;;5092840;28;20016;-77
2021/06/27 00:38:42;;;;;;;12.05;8.18;;;;;;;;;;5097634;28;20039;-77
2021/06/27 00:41:08;;;;;;;12.48;7.82;;;;;;;;;;5092599;28;20044;-78
2021/06/27 00:43:35;;;;;;;14.48;8.30;;;;;;;;;;5112236;28;20028;-79
2021/06/27 00:46:01;;;;;;;10.57;7.40;;;;;;;;;;5093363;28;20024;-78
2021/06/27 00:48:28;;;;;;;12.20;7.77;;;;;;;;;;5096441;28;20466;-78
2021/06/27 00:50:55;;;;;;;14.43;8.80;;;;;;;;;;5112702;28;20073;-79
2021/06/27 00:53:21;;;;;;;12.02;8.48;;;;;;;;;;5112164;28;20044;-78
2021/06/27 00:55:55;;;;;;;14.30;8.80;;;;;;;;;;5113121;28;20039;-78
2021/06/27 00:58:25;;;;;;;11.20;8.77;;;;;;;;;;5108519;28;20069;-77
2021/06/27 01:00:51;;;;;;;12.30;9.20;;;;;;;;;;5105890;28;20463;-77
2021/06/27 01:03:17;;;;;;;13.88;8.77;;;;;;;;;;5092027;28;20479;-79
2021/06/27 01:05:43;;;;;;;13.48;7.70;;;;;;;;;;5092120;28;20028;-78
2021/06/27 01:08:09;;;;;;;15.38;7.82;;;;;;;;;;5091370;28;20030;-78
2021/06/27 01:10:35;;;;;;;17.60;7.88;;;;;;;;;;5092477;28;20028;-77
2021/06/27 01:13:01;;;;;;;13.98;8.80;;;;;;;;;;5108393;28;20027;-79
2021/06/27 01:15:28;;;;;;;10.30;8.25;;;;;;;;;;5095490;28;20036;-78
2021/06/27 01:17:55;;;;;;;12.52;7.75;;;;;;;;;;5095248;28;20260;-78
2021/06/27 01:20:21;;;;;;;11.73;8.27;;;;;;;;;;5091699;28;20044;-77
2021/06/27 01:22:47;;;;;;;15.00;7.60;;;;;;;;;;5112255;28;20031;-77
2021/06/27 01:25:14;;;;;;;11.35;7.93;;;;;;;;;;5109187;28;20015;-78
2021/06/27 01:27:40;;;;;;;10.50;6.32;;;;;;;;;;5096394;28;20035;-78
2021/06/27 01:30:09;;;;;;;9.32;6.28;;;;;;;;;;5101958;28;20032;-78
2021/06/27 01:32:35;;;;;;;13.93;6.15;;;;;;;;;;5111759;28;20024;-78
2021/06/27 01:35:02;;;;;;;12.15;6.53;;;;;;;;;;5112939;28;20107;-78
2021/06/27 01:37:28;;;;;;;11.10;6.50;;;;;;;;;;5107826;28;20032;-77
2021/06/27 01:39:54;;;;;;;11.13;6.57;;;;;;;;;;5106539;28;20402;-77
2021/06/27 01:42:23;;;;;;;10.57;6.30;;;;;;;;;;5097682;28;20080;-78
2021/06/27 01:44:49;;;;;;;8.50;6.35;;;;;;;;;;5080305;28;20032;-78
2021/06/27 01:47:15;;;;;;;10.05;6.55;;;;;;;;;;5104175;28;20106;-78
2021/06/27 01:49:42;;;;;;;8.93;6.68;;;;;;;;;;5073371;28;20165;-78
2021/06/27 01:52:08;;;;;;;9.60;7.10;;;;;;;;;;5090373;28;20276;-79
2021/06/27 01:54:37;;;;;;;9.88;6.70;;;;;;;;;;5091084;28;20047;-78
2021/06/27 01:57:03;;;;;;;10.73;7.10;;;;;;;;;;5106075;28;20031;-78
2021/06/27 01:59:29;;;;;;;15.80;6.60;;;;;;;;;;5104155;28;20102;-78
2021/06/27 02:01:55;;;;;;;10.18;6.72;;;;;;;;;;5092514;28;20173;-79
2021/06/27 02:04:21;;;;;;;11.20;7.18;;;;;;;;;;5095560;28;20020;-78
2021/06/27 02:06:47;;;;;;;10.45;7.25;;;;;;;;;;5110940;28;20027;-78
2021/06/27 02:09:13;;;;;;;11.32;6.90;;;;;;;;;;5106000;28;20031;-79
2021/06/27 02:11:40;;;;;;;9.63;6.82;;;;;;;;;;5072336;28;20621;-78
2021/06/27 02:14:06;;;;;;;11.07;7.00;;;;;;;;;;5108255;28;20035;-78
2021/06/27 02:16:33;;;;;;;10.43;7.07;;;;;;;;;;5111187;28;20040;-78
2021/06/27 02:18:59;;;;;;;8.68;7.72;;;;;;;;;;5110574;28;20024;-79
2021/06/27 02:21:29;;;;;;;10.18;7.60;;;;;;;;;;5109920;28;20087;-78
2021/06/27 02:23:56;;;;;;;10.50;7.50;;;;;;;;;;5110679;28;20025;-78
2021/06/27 02:26:24;;;;;;;10.13;7.72;;;;;;;;;;5111494;28;20030;-77
2021/06/27 02:28:51;;;;;;;9.35;7.75;;;;;;;;;;5111468;28;20099;-77
2021/06/27 02:31:17;;;;;;;9.68;6.88;;;;;;;;;;5110978;28;20037;-77
2021/06/27 02:33:43;;;;;;;10.35;6.65;;;;;;;;;;5108806;28;20032;-77
2021/06/27 02:36:09;;;;;;;9.52;6.97;;;;;;;;;;5103517;28;20036;-77
2021/06/27 02:38:36;;;;;;;12.48;7.57;;;;;;;;;;5110917;28;20125;-77
2021/06/27 02:41:03;;;;;;;10.02;7.00;;;;;;;;;;5092830;28;20405;-78
2021/06/27 02:43:29;;;;;;;9.57;7.10;;;;;;;;;;5109596;28;20553;-78
2021/06/27 02:45:55;;;;;;;13.40;7.43;;;;;;;;;;5110189;28;20032;-78
2021/06/27 02:48:21;;;;;;;16.00;7.72;;;;;;;;;;5110836;28;20103;-78
2021/06/27 02:50:48;;;;;;;11.65;7.05;;;;;;;;;;5072437;28;20040;-78
2021/06/27 02:53:14;;;;;;;8.50;6.65;;;;;;;;;;5089019;28;20055;-77
2021/06/27 02:55:40;;;;;;;11.45;6.90;;;;;;;;;;5089401;28;20078;-78
2021/06/27 02:58:06;;;;;;;12.63;7.22;;;;;;;;;;5090466;28;20024;-78
2021/06/27 03:00:32;;;;;;;9.80;6.78;;;;;;;;;;5091866;28;20043;-77
2021/06/27 03:02:59;;;;;;;14.68;6.80;;;;;;;;;;5096710;28;20033;-78
2021/06/27 03:05:25;;;;;;;12.60;7.67;;;;;;;;;;5109833;28;20114;-78
2021/06/27 03:07:51;;;;;;;8.70;7.07;;;;;;;;;;5110546;28;20032;-78
2021/06/27 03:10:18;;;;;;;10.35;6.80;;;;;;;;;;5103659;28;20229;-78
2021/06/27 03:12:47;;;;;;;10.35;6.65;;;;;;;;;;5089426;28;20099;-78
2021/06/27 03:15:13;;;;;;;9.70;6.90;;;;;;;;;;5090021;28;20104;-78
2021/06/27 03:17:39;;;;;;;9.93;6.60;;;;;;;;;;5076274;28;20024;-78
2021/06/27 03:20:09;;;;;;;8.80;6.57;;;;;;;;;;5078283;28;20090;-78
2021/06/27 03:22:35;;;;;;;11.40;7.38;;;;;;;;;;5109994;28;20146;-77
2021/06/27 03:25:01;;;;;;;12.20;6.97;;;;;;;;;;5110552;28;20035;-78
2021/06/27 03:27:27;;;;;;;11.25;7.38;;;;;;;;;;5090539;28;20104;-77
2021/06/27 03:29:53;;;;;;;13.30;7.82;;;;;;;;;;5090071;28;20057;-78
2021/06/27 03:32:19;;;;;;;9.90;7.40;;;;;;;;;;5098756;28;20091;-77
2021/06/27 03:34:45;;;;;;;12.50;7.22;;;;;;;;;;5096170;28;20486;-78
2021/06/27 03:37:11;;;;;;;11.65;6.78;;;;;;;;;;5071400;28;20033;-77
2021/06/27 03:39:37;;;;;;;14.80;7.75;;;;;;;;;;5079632;28;20027;-78
2021/06/27 03:42:03;;;;;;;10.07;6.60;;;;;;;;;;5109429;28;20023;-78
2021/06/27 03:44:30;;;;;;;8.38;7.15;;;;;;;;;;5110572;28;20024;-77
2021/06/27 03:46:56;;;;;;;11.05;7.22;;;;;;;;;;5105396;28;20054;-78
2021/06/27 03:49:22;;;;;;;10.45;6.65;;;;;;;;;;5097414;28;20020;-78
2021/06/27 03:51:48;;;;;;;12.63;7.38;;;;;;;;;;5071353;28;20028;-76
2021/06/27 03:54:15;;;;;;;12.18;6.93;;;;;;;;;;5089488;28;20074;-77
2021/06/27 03:56:41;;;;;;;18.65;7.03;;;;;;;;;;5099232;28;20424;-77
2021/06/27 03:59:08;;;;;;;13.45;6.90;;;;;;;;;;5109285;28;20092;-78
2021/06/27 04:01:34;;;;;;;9.18;6.72;;;;;;;;;;5103835;28;20071;-77
2021/06/27 04:04:01;;;;;;;10.23;7.47;;;;;;;;;;5093255;28;20471;-78
2021/06/27 04:06:27;;;;;;;11.07;7.22;;;;;;;;;;5098810;28;20035;-77
2021/06/27 04:08:53;;;;;;;13.15;7.72;;;;;;;;;;5095014;28;20453;-78
2021/06/27 04:11:19;;;;;;;11.00;7.25;;;;;;;;;;5112481;28;20106;-76
2021/06/27 04:13:45;;;;;;;8.05;6.65;;;;;;;;;;5113375;28;20103;-78
2021/06/27 04:16:12;;;;;;;10.07;7.25;;;;;;;;;;5112084;28;20389;-77
2021/06/27 04:18:38;;;;;;;10.55;7.32;;;;;;;;;;5100000;28;20159;-76
2021/06/27 04:21:05;;;;;;;10.40;7.17;;;;;;;;;;5110072;28;20040;-77
2021/06/27 04:23:32;;;;;;;10.60;6.68;;;;;;;;;;5113118;28;20115;-77
2021/06/27 04:25:58;;;;;;;10.77;7.28;;;;;;;;;;5108840;28;20024;-77
2021/06/27 04:28:24;;;;;;;8.73;6.38;;;;;;;;;;5093165;28;20036;-77
2021/06/27 04:30:50;;;;;;;12.57;6.82;;;;;;;;;;5092439;28;20035;-77
2021/06/27 04:33:16;;;;;;;10.25;6.95;;;;;;;;;;5098077;28;20123;-78
2021/06/27 04:35:42;;;;;;;10.35;6.88;;;;;;;;;;5099726;28;20028;-76
2021/06/27 04:38:09;;;;;;;8.20;7.30;;;;;;;;;;5093140;28;20039;-76
2021/06/27 04:40:36;;;;;;;13.32;6.63;;;;;;;;;;5109041;28;20086;-76
2021/06/27 04:43:02;;;;;;;12.35;7.47;;;;;;;;;;5111681;28;20086;-78
2021/06/27 04:45:28;;;;;;;10.45;7.15;;;;;;;;;;5113348;28;20028;-78
2021/06/27 04:47:54;;;;;;;9.77;7.05;;;;;;;;;;5113237;28;20016;-77
2021/06/27 04:50:20;;;;;;;10.23;7.38;;;;;;;;;;5110058;28;20047;-77
2021/06/27 04:52:51;;;;;;;16.73;7.68;;;;;;;;;;5109861;28;20098;-78
2021/06/27 04:55:17;;;;;;;8.65;7.18;;;;;;;;;;5092523;28;20043;-77
2021/06/27 04:57:43;;;;;;;12.35;7.55;;;;;;;;;;5110949;28;20032;-77
2021/06/27 05:00:10;;;;;;;11.48;6.57;;;;;;;;;;5109854;28;20043;-77
2021/06/27 05:02:36;;;;;;;10.20;7.13;;;;;;;;;;5112040;28;20038;-75
2021/06/27 05:05:02;;;;;;;12.48;7.65;;;;;;;;;;5112310;28;20076;-77
2021/06/27 05:07:28;;;;;;;8.25;6.68;;;;;;;;;;5094545;28;20543;-77
2021/06/27 05:09:56;;;;;;;11.48;6.82;;;;;;;;;;5112905;28;20023;-77
2021/06/27 05:12:22;;;;;;;9.95;6.10;;;;;;;;;;5111876;28;20012;-77
2021/06/27 05:14:48;;;;;;;7.68;6.65;;;;;;;;;;5112270;28;20111;-78
2021/06/27 05:17:14;;;;;;;10.80;7.35;;;;;;;;;;5112967;28;20088;-78
2021/06/27 05:19:40;;;;;;;8.93;6.25;;;;;;;;;;5112245;28;20063;-78
2021/06/27 05:22:06;;;;;;;10.40;6.25;;;;;;;;;;5111748;28;20036;-79
2021/06/27 05:24:32;;;;;;;8.38;5.88;;;;;;;;;;5111049;28;20110;-77
2021/06/27 05:26:58;;;;;;;11.60;6.65;;;;;;;;;;5094395;28;20110;-78
2021/06/27 05:29:24;;;;;;;9.32;6.50;;;;;;;;;;5110810;28;20485;-77
2021/06/27 05:31:50;;;;;;;10.77;6.15;;;;;;;;;;5110820;28;20120;-77
2021/06/27 05:34:16;;;;;;;8.95;6.40;;;;;;;;;;5111085;28;20023;-78
2021/06/27 05:36:42;;;;;;;9.75;5.82;;;;;;;;;;5111584;28;20551;-79
2021/06/27 05:39:10;;;;;;;9.55;5.90;;;;;;;;;;5106144;28;20053;-77
2021/06/27 05:41:36;;;;;;;9.27;6.18;;;;;;;;;;5109961;28;20431;-77
2021/06/27 05:44:03;;;;;;;10.75;6.68;;;;;;;;;;5111897;28;20026;-78
2021/06/27 05:46:29;;;;;;;9.02;6.88;;;;;;;;;;5094960;28;20032;-77
2021/06/27 05:48:55;;;;;;;12.10;7.43;;;;;;;;;;5095706;28;20304;-78
2021/06/27 05:51:22;;;;;;;9.25;6.55;;;;;;;;;;5111650;28;20376;-76
2021/06/27 05:53:48;;;;;;;10.55;6.25;;;;;;;;;;5111183;28;20472;-78
2021/06/27 05:56:17;;;;;;;11.13;6.82;;;;;;;;;;5110794;28;20367;-77
2021/06/27 05:58:44;;;;;;;8.63;5.95;;;;;;;;;;5111317;28;20026;-78
2021/06/27 06:01:11;;;;;;;9.05;6.10;;;;;;;;;;5111765;28;20078;-77
2021/06/27 06:03:37;;;;;;;;;;;;;;;;;;5110562;28;20034;-77
2021/06/27 06:06:03;;;;;;;10.05;6.28;;;;;;;;;;5098678;28;19904;-78
2021/06/27 06:08:30;;;;;;;10.05;6.15;;;;;;;;;;5098678;28;20070;-77
2021/06/27 06:10:56;;;;;;;10.88;6.53;;;;;;;;;;5108034;28;20427;-77
2021/06/27 06:13:22;;;;;;;14.57;7.00;;;;;;;;;;5102284;28;20118;-77
2021/06/27 06:15:48;;;;;;;8.88;5.97;;;;;;;;;;5110973;28;20015;-76
2021/06/27 06:18:14;;;;;;;8.48;6.38;;;;;;;;;;5109185;28;20068;-77
2021/06/27 06:20:41;;;;;;;10.02;6.80;;;;;;;;;;5110483;28;20141;-77
2021/06/27 06:23:07;;;;;;;6.60;5.72;;;;;;;;;;5101226;27;20066;-78
2021/06/27 06:25:33;;;;;;;7.93;6.28;;;;;;;;;;5097708;28;20051;-78
2021/06/27 06:27:59;;;;;;;10.35;6.45;;;;;;;;;;5110004;28;20024;-78
2021/06/27 06:30:25;;;;;;;9.00;6.72;;;;;;;;;;5104777;28;20047;-77
2021/06/27 06:32:51;;;;;;;11.27;6.13;;;;;;;;;;5106215;28;20019;-78
2021/06/27 06:35:17;;;;;;;9.40;5.80;;;;;;;;;;5109920;28;20062;-79
2021/06/27 06:37:43;;;;;;;11.57;5.78;;;;;;;;;;5112941;27;20023;-77
2021/06/27 06:40:09;;;;;;;10.60;6.25;;;;;;;;;;5113038;27;20047;-76
2021/06/27 06:42:36;;;;;;;7.40;5.83;;;;;;;;;;5107086;28;20054;-76
2021/06/27 06:45:02;;;;;;;9.40;6.00;;;;;;;;;;5104381;27;20362;-77
2021/06/27 06:47:28;;;;;;;11.73;6.75;;;;;;;;;;5109118;28;20042;-76
2021/06/27 06:49:54;;;;;;;12.65;6.60;;;;;;;;;;5108652;28;20024;-76
2021/06/27 06:52:20;;;;;;;8.55;6.10;;;;;;;;;;5095508;28;20107;-77
2021/06/27 06:54:46;;;;;;;6.35;5.75;;;;;;;;;;5110831;28;20043;-76
2021/06/27 06:57:12;;;;;;;8.55;6.30;;;;;;;;;;5091743;28;20035;-77
2021/06/27 06:59:38;;;;;;;13.40;6.95;;;;;;;;;;5111420;28;20454;-78
2021/06/27 07:02:08;;;;;;;8.25;5.82;;;;;;;;;;5110136;28;20397;-76
2021/06/27 07:04:34;;;;;;;10.02;5.55;;;;;;;;;;5093228;28;20023;-79
2021/06/27 07:07:00;;;;;;;9.43;5.30;;;;;;;;;;5130405;27;20504;-77
2021/06/27 07:09:26;;;;;;;5.97;5.10;;;;;;;;;;5112334;28;20111;-78
2021/06/27 07:11:52;;;;;;;11.85;5.78;;;;;;;;;;5125374;28;20098;-78
2021/06/27 07:14:18;;;;;;;8.05;5.13;;;;;;;;;;5088654;28;20154;-78
2021/06/27 07:16:44;;;;;;;11.50;5.72;;;;;;;;;;5092198;28;20057;-78
2021/06/27 07:19:10;;;;;;;8.60;5.57;;;;;;;;;;5110526;28;20049;-78
2021/06/27 07:21:39;;;;;;;13.52;5.20;;;;;;;;;;5091039;28;20035;-77
2021/06/27 07:24:05;;;;;;;9.98;5.15;;;;;;;;;;5110301;28;20024;-77
2021/06/27 07:26:31;;;;;;;12.27;5.35;;;;;;;;;;5100900;28;20044;-78
2021/06/27 07:28:57;;;;;;;22.45;6.18;;;;;;;;;;5106849;28;20032;-79
2021/06/27 07:31:23;;;;;;;9.32;5.38;;;;;;;;;;5110112;28;20034;-78
2021/06/27 07:33:49;;;;;;;12.20;8.57;;;;;;;;;;5128626;28;20118;-79
2021/06/27 07:36:15;;;;;;;13.57;7.22;;;;;;;;;;5129413;28;20168;-78
2021/06/27 07:38:41;;;;;;;11.20;7.75;;;;;;;;;;5129052;28;20095;-77
2021/06/27 07:41:07;;;;;;;12.10;6.82;;;;;;;;;;5126688;27;20488;-77
2021/06/27 07:43:34;;;;;;;13.38;6.60;;;;;;;;;;5112274;27;20024;-77
2021/06/27 07:46:00;;;;;;;;;;;;;;;;;;5113656;28;20157;-78
2021/06/27 07:48:26;;;;;;;9.07;5.80;;;;;;;;;;5112974;28;20006;-78
2021/06/27 07:50:52;;;;;;;6.68;5.43;;;;;;;;;;5113776;27;20034;-78
2021/06/27 07:53:18;;;;;;;8.98;5.20;;;;;;;;;;5113258;28;20051;-78
2021/06/27 07:55:44;;;;;;;8.68;5.28;;;;;;;;;;5134401;27;20477;-79
2021/06/27 07:58:10;;;;;;;15.00;5.10;;;;;;;;;;5116010;27;20039;-78
2021/06/27 08:00:36;;;;;;;10.90;5.10;;;;;;;;;;5113738;28;20065;-77
2021/06/27 08:03:02;;;;;;;10.45;5.05;;;;;;;;;;5113419;28;20442;-79
2021/06/27 08:05:28;;;;;;;8.93;4.82;;;;;;;;;;5113897;28;20050;-79
2021/06/27 08:07:54;;;;;;;7.93;4.78;;;;;;;;;;5113962;28;20465;-78
2021/06/27 08:10:20;;;;;;;8.13;5.18;;;;;;;;;;5129748;27;20381;-78
2021/06/27 08:12:46;;;;;;;7.35;5.03;;;;;;;;;;5113658;28;20020;-78
2021/06/27 08:15:22;;;;;;;7.18;4.65;;;;;;;;;;5112803;28;20081;-79
2021/06/27 08:17:51;;;;;;;9.70;4.80;;;;;;;;;;5114154;28;20028;-79
2021/06/27 08:20:18;;;;;;;10.65;5.03;;;;;;;;;;5120854;27;20035;-78
2021/06/27 08:22:44;;;;;;;7.65;4.70;;;;;;;;;;5133057;27;20103;-78
2021/06/27 08:25:10;;;;;;;13.43;5.22;;;;;;;;;;5115182;27;20038;-77
2021/06/27 08:27:37;;;;;;;9.95;5.25;;;;;;;;;;5133311;27;20027;-79
2021/06/27 08:30:05;;;;;;;10.95;5.10;;;;;;;;;;5116498;27;20039;-76
2021/06/27 08:32:31;;;;;;;6.45;4.88;;;;;;;;;;5114444;27;20437;-78
2021/06/27 08:34:57;;;;;;;9.95;6.00;;;;;;;;;;5113645;28;20377;-78
2021/06/27 08:37:23;;;;;;;12.83;6.03;;;;;;;;;;5112379;28;20034;-76
2021/06/27 08:39:49;;;;;;;11.50;5.00;;;;;;;;;;5089448;28;20043;-76
2021/06/27 08:42:19;;;;;;;9.73;5.32;;;;;;;;;;5100258;28;20550;-75
2021/06/27 08:44:45;;;;;;;12.13;5.35;;;;;;;;;;5112992;28;20023;-75
2021/06/27 08:47:15;;;;;;;10.13;5.35;;;;;;;;;;5112370;28;20079;-75
2021/06/27 08:49:41;;;;;;;9.73;5.18;;;;;;;;;;5113291;28;20146;-75
2021/06/27 08:52:13;;;;;;;7.95;5.30;;;;;;;;;;5115892;27;20111;-75
2021/06/27 08:54:39;;;;;;;11.40;5.43;;;;;;;;;;5118497;27;20039;-75
2021/06/27 08:57:05;;;;;;;15.00;5.13;;;;;;;;;;5120860;27;20031;-76
2021/06/27 08:59:31;;;;;;;10.60;5.73;;;;;;;;;;5112104;28;20024;-76
2021/06/27 09:02:00;;;;;;;12.57;5.32;;;;;;;;;;5112527;28;20039;-76
2021/06/27 09:04:27;;;;;;;8.65;4.70;;;;;;;;;;5107474;28;20024;-73
2021/06/27 09:06:53;;;;;;;9.88;4.75;;;;;;;;;;5100447;28;20113;-75
2021/06/27 09:09:19;;;;;;;10.25;5.13;;;;;;;;;;5106272;28;20057;-74
2021/06/27 09:12:00;;;;;;;7.57;5.13;;;;;;;;;;5108078;28;20147;-74
2021/06/27 09:14:27;;;;;;;14.63;5.28;;;;;;;;;;5110772;28;20098;-74
2021/06/27 09:17:11;;;;;;;8.43;5.07;;;;;;;;;;5112249;28;20113;-75
2021/06/27 09:19:53;;;;;;;7.72;4.80;;;;;;;;;;5093757;28;20486;-75
2021/06/27 09:22:20;;;;;;;12.95;5.07;;;;;;;;;;5107701;27;20035;-75
2021/06/27 09:24:46;;;;;;;9.23;4.85;;;;;;;;;;5084978;28;20420;-75
2021/06/27 09:27:12;;;;;;;;;;;;;;;;;;5072520;28;20058;-77
2021/06/27 09:29:38;;;;;;;6.77;4.60;;;;;;;;;;5091300;28;19904;-77
2021/06/27 09:32:15;;;;;;;12.43;4.97;;;;;;;;;;5096963;27;20805;-76
2021/06/27 09:34:44;;;;;;;8.10;4.80;;;;;;;;;;5132966;27;20015;-75
2021/06/27 09:37:12;;;;;;;10.38;4.72;;;;;;;;;;5132873;27;20031;-76
2021/06/27 09:39:52;;;;;;;7.32;4.45;;;;;;;;;;5132413;27;20019;-77
2021/06/27 09:42:18;;;;;;;13.82;4.82;;;;;;;;;;5131468;27;20062;-76
2021/06/27 09:44:58;;;;;;;7.68;4.60;;;;;;;;;;5132812;27;20461;-77
2021/06/27 09:47:24;;;;;;;15.70;5.97;;;;;;;;;;5132904;27;20464;-77
2021/06/27 09:49:50;;;;;;;12.17;5.00;;;;;;;;;;5133097;27;20118;-76
2021/06/27 09:52:16;;;;;;;17.85;7.20;;;;;;;;;;5131352;27;20505;-76
2021/06/27 09:54:42;;;;;;;9.93;4.78;;;;;;;;;;5132073;27;20035;-76
2021/06/27 09:57:08;;;;;;;7.07;4.63;;;;;;;;;;5132565;27;20031;-77
2021/06/27 09:59:35;;;;;;;11.63;4.60;;;;;;;;;;5132599;27;20030;-77
2021/06/27 10:02:02;;;;;;;10.68;4.55;;;;;;;;;;5128828;27;20475;-77
2021/06/27 10:04:33;;;;;;;12.27;4.05;;;;;;;;;;5111434;28;20039;-77
2021/06/27 10:07:00;;;;;;;7.75;4.30;;;;;;;;;;5111670;28;20447;-77
2021/06/27 10:09:44;;;;;;;7.20;4.25;;;;;;;;;;5111688;28;20035;-77
2021/06/27 10:12:11;;;;;;;10.98;4.43;;;;;;;;;;5110435;28;20362;-76
2021/06/27 10:14:40;;;;;;;8.77;4.72;;;;;;;;;;5110974;28;20038;-76
2021/06/27 10:17:06;;;;;;;6.88;4.20;;;;;;;;;;5114246;27;20446;-76
2021/06/27 10:19:33;;;;;;;6.95;4.18;;;;;;;;;;5131891;27;20070;-76
2021/06/27 10:21:59;;;;;;;10.43;4.55;;;;;;;;;;5125484;27;20054;-77
2021/06/27 10:24:25;;;;;;;11.45;4.32;;;;;;;;;;5110428;28;20039;-77
2021/06/27 10:26:52;;;;;;;8.88;4.35;;;;;;;;;;5111095;28;20027;-75
2021/06/27 10:29:19;;;;;;;11.48;4.55;;;;;;;;;;5111460;28;20073;-76
2021/06/27 10:31:46;;;;;;;7.15;4.18;;;;;;;;;;5110961;28;20027;-77
2021/06/27 10:34:12;;;;;;;;;;;;;;;;;;5110610;27;20028;-77
2021/06/27 10:36:39;;;;;;;13.73;4.70;;;;;;;;;;5110529;28;19999;-76
2021/06/27 10:39:10;;;;;;;12.55;4.53;;;;;;;;;;5111249;28;20076;-76
2021/06/27 10:41:49;;;;;;;7.93;4.28;;;;;;;;;;5110840;28;20052;-77
2021/06/27 10:44:16;;;;;;;11.30;4.45;;;;;;;;;;5091840;28;20060;-77
2021/06/27 10:46:43;;;;;;;8.68;4.43;;;;;;;;;;5110995;28;20385;-76
2021/06/27 10:49:45;;;;;;;10.60;5.95;;;;;;;;;;5110979;28;20043;-76
2021/06/27 10:52:12;;;;;;;9.90;6.18;;;;;;;;;;5007606;28;20032;-76
2021/06/27 10:54:42;;;;;;;12.70;4.70;;;;;;;;;;5089957;28;20048;-76
2021/06/27 10:57:08;;;;;;;11.40;4.90;;;;;;;;;;5110870;28;20032;-76
2021/06/27 10:59:55;;;;;;;10.67;4.33;;;;;;;;;;5111134;28;20016;-77
2021/06/27 11:02:21;;;;;;;11.25;4.50;;;;;;;;;;5110259;28;20024;-76
2021/06/27 11:04:49;;;;;;;8.70;4.40;;;;;;;;;;5110371;28;20106;-79
2021/06/27 11:07:35;;;;;;;12.52;4.20;;;;;;;;;;5091757;28;20024;-77
2021/06/27 11:10:17;;;;;;;9.18;4.70;;;;;;;;;;5110368;28;20065;-77
2021/06/27 11:12:55;;;;;;;7.18;4.60;;;;;;;;;;5110236;28;20057;-76
2021/06/27 11:15:22;;;;;;;9.07;4.50;;;;;;;;;;5110675;28;20019;-76
2021/06/27 11:17:51;;;;;;;9.48;4.80;;;;;;;;;;5116833;28;20110;-76
2021/06/27 11:20:17;;;;;;;9.18;4.30;;;;;;;;;;5117367;28;20036;-77
2021/06/27 11:22:47;;;;;;;13.18;4.43;;;;;;;;;;5117152;28;20027;-77
2021/06/27 11:25:32;;;;;;;12.95;4.38;;;;;;;;;;5117226;28;20029;-76
2021/06/27 11:27:58;;;;;;;7.88;4.88;;;;;;;;;;5116536;28;20067;-77
2021/06/27 11:30:30;;;;;;;8.85;4.82;;;;;;;;;;5117321;28;20019;-77
2021/06/27 11:32:56;;;;;;;13.93;4.30;;;;;;;;;;5127075;27;20034;-76
2021/06/27 11:35:22;;;;;;;;;;;;;;;;;;5138705;27;20047;-76
2021/06/27 11:37:48;;;;;;;6.72;4.53;;;;;;;;;;5137427;27;20249;-77
2021/06/27 11:40:15;;;;;;;7.80;4.90;;;;;;;;;;5137838;27;20027;-77
2021/06/27 11:42:41;;;;;;;14.23;4.78;;;;;;;;;;5136865;27;20469;-75
2021/06/27 11:45:07;;;;;;;9.57;4.50;;;;;;;;;;5138015;27;20027;-77
2021/06/27 11:47:37;;;;;;;8.13;5.07;;;;;;;;;;5137397;27;20608;-77
2021/06/27 11:50:15;;;;;;;7.30;4.20;;;;;;;;;;5137042;27;20098;-77
2021/06/27 11:52:41;;;;;;;13.38;4.68;;;;;;;;;;5136952;27;20110;-76
2021/06/27 11:55:08;;;;;;;7.22;4.50;;;;;;;;;;5137859;27;20039;-77
2021/06/27 11:57:34;;;;;;;;;;;;;;;;;;5138127;27;20047;-77
2021/06/27 12:00:00;;;;;;;10.40;4.78;;;;;;;;;;5136882;27;20019;-77
2021/06/27 12:02:28;;;;;;;9.30;4.80;;;;;;;;;;5117739;27;20074;-77
2021/06/27 12:04:57;;;;;;;14.50;4.47;;;;;;;;;;5137812;27;20028;-76
2021/06/27 12:07:26;;;;;;;12.75;4.95;;;;;;;;;;5135844;27;20357;-77
2021/06/27 12:09:53;;;;;;;12.13;4.40;;;;;;;;;;5136479;27;20026;-77
2021/06/27 12:12:37;;;;;;;6.82;4.68;;;;;;;;;;5137051;27;20023;-76
2021/06/27 12:15:07;;;;;;;8.65;4.60;;;;;;;;;;5119026;27;20023;-77
2021/06/27 12:17:34;;;;;;;10.00;4.57;;;;;;;;;;5137442;27;20023;-76
2021/06/27 12:20:00;;;;;;;16.05;4.82;;;;;;;;;;5136873;27;20035;-77
2021/06/27 12:22:26;;;;;;;8.02;4.15;;;;;;;;;;5118175;27;20023;-76
2021/06/27 12:24:59;;;;;;;8.95;4.45;;;;;;;;;;5137798;27;20043;-77
2021/06/27 12:27:25;;;;;;;9.65;4.43;;;;;;;;;;5135371;27;20031;-77
2021/06/27 12:29:52;;;;;;;13.07;4.63;;;;;;;;;;5133560;27;20430;-78
2021/06/27 12:32:18;;;;;;;7.00;4.65;;;;;;;;;;5124780;27;20034;-76
2021/06/27 12:34:44;;;;;;;12.43;4.53;;;;;;;;;;5113704;28;20023;-77
2021/06/27 12:37:10;;;;;;;5.97;4.25;;;;;;;;;;5113542;28;20393;-77
2021/06/27 12:39:37;;;;;;;10.48;4.50;;;;;;;;;;5113537;28;20385;-78
2021/06/27 12:42:10;;;;;;;8.93;4.55;;;;;;;;;;5111834;28;20067;-77
2021/06/27 12:44:36;;;;;;;9.77;4.40;;;;;;;;;;5113677;28;20027;-76
2021/06/27 12:47:03;;;;;;;9.57;4.20;;;;;;;;;;5126591;27;20061;-77
2021/06/27 12:49:31;;;;;;;8.40;4.32;;;;;;;;;;5133309;27;20032;-76
2021/06/27 12:51:58;;;;;;;9.45;4.50;;;;;;;;;;5132859;27;20060;-77
2021/06/27 12:54:24;;;;;;;12.73;4.03;;;;;;;;;;5125283;27;20305;-78
2021/06/27 12:56:50;;;;;;;;;;;;;;;;;;5113743;28;20295;-77
2021/06/27 12:59:17;;;;;;;13.90;4.03;;;;;;;;;;5113102;28;20411;-77
2021/06/27 13:01:55;;;;;;;9.57;4.10;;;;;;;;;;5112082;28;20055;-78
2021/06/27 13:04:24;;;;;;;7.18;3.97;;;;;;;;;;5112667;28;20052;-78
2021/06/27 13:07:01;;;;;;;6.13;3.67;;;;;;;;;;5112637;28;20019;-78
2021/06/27 13:09:28;;;;;;;9.48;4.35;;;;;;;;;;5112918;28;20031;-78
2021/06/27 13:12:12;;;;;;;5.90;3.78;;;;;;;;;;5112093;28;20080;-75
2021/06/27 13:14:40;;;;;;;8.73;4.13;;;;;;;;;;5111789;28;20114;-77
2021/06/27 13:17:08;;;;;;;16.45;4.70;;;;;;;;;;5127811;27;20525;-79
2021/06/27 13:19:34;;;;;;;11.55;4.20;;;;;;;;;;5132985;27;20027;-78
2021/06/27 13:22:13;;;;;;;12.40;4.40;;;;;;;;;;5132792;27;20046;-77
2021/06/27 13:24:58;;;;;;;11.30;4.53;;;;;;;;;;5132367;27;20114;-77
2021/06/27 13:27:24;;;;;;;12.02;4.50;;;;;;;;;;5132937;27;20058;-77
2021/06/27 13:30:10;;;;;;;10.05;4.40;;;;;;;;;;5132860;27;20404;-77
2021/06/27 13:32:36;;;;;;;7.68;4.05;;;;;;;;;;5132353;27;20459;-77
2021/06/27 13:35:03;;;;;;;7.32;4.65;;;;;;;;;;5131968;27;20027;-78
2021/06/27 13:37:49;;;;;;;6.72;4.30;;;;;;;;;;5114798;27;20114;-78
2021/06/27 13:40:15;;;;;;;9.95;4.70;;;;;;;;;;5132494;27;20049;-77
2021/06/27 13:42:41;;;;;;;8.90;4.47;;;;;;;;;;5132135;27;20064;-76
2021/06/27 13:45:07;;;;;;;10.05;4.82;;;;;;;;;;5123492;27;20024;-77
2021/06/27 13:47:33;;;;;;;7.13;3.92;;;;;;;;;;5092863;28;20046;-78
2021/06/27 13:49:59;;;;;;;;;;;;;;;;;;5113104;28;20461;-78
2021/06/27 13:52:25;;;;;;;6.68;3.95;;;;;;;;;;5093104;28;19907;-78
2021/06/27 13:54:51;;;;;;;;;;;;;;;;;;5112386;28;20075;-77
2021/06/27 13:57:17;;;;;;;10.10;3.83;;;;;;;;;;5110902;28;19912;-78
2021/06/27 13:59:43;;;;;;;7.13;4.40;;;;;;;;;;5112182;28;20124;-78
2021/06/27 14:02:09;;;;;;;7.55;4.22;;;;;;;;;;5111734;28;20063;-77
2021/06/27 14:04:35;;;;;;;7.60;4.50;;;;;;;;;;5111730;28;20039;-78
2021/06/27 14:07:00;;;;;;;7.72;4.93;;;;;;;;;;5111097;28;20059;-77
2021/06/27 14:09:27;;;;;;;;;;;;;;;;;;5112450;28;20020;-78
2021/06/27 14:11:53;;;;;;;15.15;4.35;;;;;;;;;;5111292;28;19903;-79
2021/06/27 14:14:19;;;;;;;;;;;;;;;;;;5112094;27;20036;-77
2021/06/27 14:16:48;;;;;;;8.05;3.92;;;;;;;;;;5111763;28;20406;-78
2021/06/27 14:19:14;;;;;;;7.25;3.90;;;;;;;;;;5110768;28;20526;-79
2021/06/27 14:21:43;;;;;;;9.35;4.30;;;;;;;;;;5110521;28;20773;-78
2021/06/27 14:24:09;;;;;;;9.85;4.50;;;;;;;;;;5111515;28;20024;-78
2021/06/27 14:26:35;;;;;;;10.77;4.40;;;;;;;;;;5112130;28;20038;-78
2021/06/27 14:29:01;;;;;;;16.40;4.60;;;;;;;;;;5110880;28;20466;-76
2021/06/27 14:31:27;;;;;;;10.50;4.47;;;;;;;;;;5110713;28;20059;-77
2021/06/27 14:33:54;;;;;;;7.95;4.30;;;;;;;;;;5111042;28;20098;-77
2021/06/27 14:36:21;;;;;;;8.32;4.30;;;;;;;;;;5109222;28;20065;-78
2021/06/27 14:38:47;;;;;;;6.50;4.43;;;;;;;;;;5110430;28;20028;-76
2021/06/27 14:41:13;;;;;;;9.20;4.47;;;;;;;;;;5111921;27;20038;-77